sensor_id;sensor_type;location;lat;lon;timestamp;temperature;humidity
8105;DHT22;4095;48.942;9.104;2023-04-01T00:01:11;11.80;99.30
8105;DHT22;4095;48.942;9.104;2023-04-01T00:03:39;11.80;99.20
8105;DHT22;4095;48.942;9.104;2023-04-01T00:06:05;11.80;99.20
8105;DHT22;4095;48.942;9.104;2023-04-01T00:08:31;11.80;98.90
8105;DHT22;4095;48.942;9.104;2023-04-01T00:10:57;11.90;98.90
8105;DHT22;4095;48.942;9.104;2023-04-01T00:13:24;11.90;98.80
8105;DHT22;4095;48.942;9.104;2023-04-01T00:15:52;12.00;98.50
8105;DHT22;4095;48.942;9.104;2023-04-01T00:18:18;11.90;98.30
8105;DHT22;4095;48.942;9.104;2023-04-01T00:20:45;11.90;98.40
8105;DHT22;4095;48.942;9.104;2023-04-01T00:23:12;11.80;98.20
8105;DHT22;4095;48.942;9.104;2023-04-01T00:25:37;11.90;98.30
8105;DHT22;4095;48.942;9.104;2023-04-01T00:28:03;11.90;98.10
8105;DHT22;4095;48.942;9.104;2023-04-01T00:30:28;12.00;98.10
8105;DHT22;4095;48.942;9.104;2023-04-01T00:32:54;12.00;98.10
8105;DHT22;4095;48.942;9.104;2023-04-01T00:35:20;12.00;97.80
8105;DHT22;4095;48.942;9.104;2023-04-01T00:37:46;12.00;97.90
8105;DHT22;4095;48.942;9.104;2023-04-01T00:40:34;12.00;97.90
8105;DHT22;4095;48.942;9.104;2023-04-01T00:43:00;12.00;97.90
8105;DHT22;4095;48.942;9.104;2023-04-01T00:45:34;12.00;98.10
8105;DHT22;4095;48.942;9.104;2023-04-01T00:48:23;12.00;98.20
8105;DHT22;4095;48.942;9.104;2023-04-01T00:51:03;12.00;98.10
8105;DHT22;4095;48.942;9.104;2023-04-01T00:53:31;12.00;98.00
8105;DHT22;4095;48.942;9.104;2023-04-01T00:56:04;12.00;98.10
8105;DHT22;4095;48.942;9.104;2023-04-01T00:58:34;12.00;98.00
8105;DHT22;4095;48.942;9.104;2023-04-01T01:01:00;12.00;97.90
8105;DHT22;4095;48.942;9.104;2023-04-01T01:03:27;12.00;97.70
8105;DHT22;4095;48.942;9.104;2023-04-01T01:10:56;12.10;97.20
8105;DHT22;4095;48.942;9.104;2023-04-01T01:16:34;12.20;97.00
8105;DHT22;4095;48.942;9.104;2023-04-01T01:19:19;12.30;96.70
8105;DHT22;4095;48.942;9.104;2023-04-01T01:27:49;12.40;96.30
8105;DHT22;4095;48.942;9.104;2023-04-01T01:30:30;12.40;96.40
8105;DHT22;4095;48.942;9.104;2023-04-01T01:35:43;12.50;96.40
8105;DHT22;4095;48.942;9.104;2023-04-01T01:38:14;12.50;96.50
8105;DHT22;4095;48.942;9.104;2023-04-01T01:40:43;12.50;96.50
8105;DHT22;4095;48.942;9.104;2023-04-01T01:43:12;12.50;96.50
8105;DHT22;4095;48.942;9.104;2023-04-01T01:45:44;12.50;96.40
8105;DHT22;4095;48.942;9.104;2023-04-01T01:48:11;12.50;96.20
8105;DHT22;4095;48.942;9.104;2023-04-01T01:50:38;12.50;96.20
8105;DHT22;4095;48.942;9.104;2023-04-01T01:53:05;12.50;96.00
8105;DHT22;4095;48.942;9.104;2023-04-01T01:55:37;12.50;95.80
8105;DHT22;4095;48.942;9.104;2023-04-01T02:00:55;12.60;95.80
8105;DHT22;4095;48.942;9.104;2023-04-01T02:03:23;12.60;95.80
8105;DHT22;4095;48.942;9.104;2023-04-01T02:05:51;12.50;95.90
8105;DHT22;4095;48.942;9.104;2023-04-01T02:08:22;12.60;95.60
8105;DHT22;4095;48.942;9.104;2023-04-01T02:10:59;12.60;95.50
8105;DHT22;4095;48.942;9.104;2023-04-01T02:13:48;12.60;95.50
8105;DHT22;4095;48.942;9.104;2023-04-01T02:16:34;12.60;96.40
8105;DHT22;4095;48.942;9.104;2023-04-01T02:19:01;12.60;96.60
8105;DHT22;4095;48.942;9.104;2023-04-01T02:21:31;12.50;96.90
8105;DHT22;4095;48.942;9.104;2023-04-01T02:23:59;12.50;97.30
8105;DHT22;4095;48.942;9.104;2023-04-01T02:26:26;12.40;97.20
8105;DHT22;4095;48.942;9.104;2023-04-01T02:28:54;12.40;97.10
8105;DHT22;4095;48.942;9.104;2023-04-01T02:31:22;12.40;97.20
8105;DHT22;4095;48.942;9.104;2023-04-01T02:33:48;12.40;97.00
8105;DHT22;4095;48.942;9.104;2023-04-01T02:36:15;12.40;97.20
8105;DHT22;4095;48.942;9.104;2023-04-01T02:38:42;12.50;97.40
8105;DHT22;4095;48.942;9.104;2023-04-01T02:41:10;12.50;97.60
8105;DHT22;4095;48.942;9.104;2023-04-01T02:43:36;12.50;97.80
8105;DHT22;4095;48.942;9.104;2023-04-01T02:46:01;12.50;98.10
8105;DHT22;4095;48.942;9.104;2023-04-01T02:48:27;12.50;98.40
8105;DHT22;4095;48.942;9.104;2023-04-01T02:50:53;12.40;97.50
8105;DHT22;4095;48.942;9.104;2023-04-01T02:53:18;12.30;96.90
8105;DHT22;4095;48.942;9.104;2023-04-01T02:55:44;12.30;96.60
8105;DHT22;4095;48.942;9.104;2023-04-01T02:58:10;12.20;96.30
8105;DHT22;4095;48.942;9.104;2023-04-01T03:00:36;12.20;96.30
8105;DHT22;4095;48.942;9.104;2023-04-01T03:03:02;12.20;96.30
8105;DHT22;4095;48.942;9.104;2023-04-01T03:05:28;12.20;96.20
8105;DHT22;4095;48.942;9.104;2023-04-01T03:07:53;12.20;96.40
8105;DHT22;4095;48.942;9.104;2023-04-01T03:10:19;12.20;96.20
8105;DHT22;4095;48.942;9.104;2023-04-01T03:12:44;12.10;96.20
8105;DHT22;4095;48.942;9.104;2023-04-01T03:15:12;12.10;96.20
8105;DHT22;4095;48.942;9.104;2023-04-01T03:17:40;12.10;96.20
8105;DHT22;4095;48.942;9.104;2023-04-01T03:20:06;12.10;96.20
8105;DHT22;4095;48.942;9.104;2023-04-01T03:22:34;12.00;96.20
8105;DHT22;4095;48.942;9.104;2023-04-01T03:25:01;12.00;96.20
8105;DHT22;4095;48.942;9.104;2023-04-01T03:27:26;12.00;96.20
8105;DHT22;4095;48.942;9.104;2023-04-01T03:29:52;12.00;96.30
8105;DHT22;4095;48.942;9.104;2023-04-01T03:32:17;12.00;96.30
8105;DHT22;4095;48.942;9.104;2023-04-01T03:34:43;12.00;96.20
8105;DHT22;4095;48.942;9.104;2023-04-01T03:37:09;12.10;96.30
8105;DHT22;4095;48.942;9.104;2023-04-01T03:39:34;12.00;96.20
8105;DHT22;4095;48.942;9.104;2023-04-01T03:42:00;12.00;96.30
8105;DHT22;4095;48.942;9.104;2023-04-01T03:44:26;12.00;96.40
8105;DHT22;4095;48.942;9.104;2023-04-01T03:46:51;11.90;96.50
8105;DHT22;4095;48.942;9.104;2023-04-01T03:49:17;11.80;96.60
8105;DHT22;4095;48.942;9.104;2023-04-01T03:51:43;11.80;96.60
8105;DHT22;4095;48.942;9.104;2023-04-01T03:54:10;11.80;96.80
8105;DHT22;4095;48.942;9.104;2023-04-01T03:56:36;11.80;96.90
8105;DHT22;4095;48.942;9.104;2023-04-01T03:59:04;11.80;96.90
8105;DHT22;4095;48.942;9.104;2023-04-01T04:01:30;11.70;97.00
8105;DHT22;4095;48.942;9.104;2023-04-01T04:03:56;11.70;97.30
8105;DHT22;4095;48.942;9.104;2023-04-01T04:06:22;11.70;97.50
8105;DHT22;4095;48.942;9.104;2023-04-01T04:08:48;11.70;97.80
8105;DHT22;4095;48.942;9.104;2023-04-01T04:11:14;11.60;97.80
8105;DHT22;4095;48.942;9.104;2023-04-01T04:13:40;11.60;97.90
8105;DHT22;4095;48.942;9.104;2023-04-01T04:16:07;11.60;98.00
8105;DHT22;4095;48.942;9.104;2023-04-01T04:18:34;11.60;98.20
8105;DHT22;4095;48.942;9.104;2023-04-01T04:20:59;11.60;98.00
8105;DHT22;4095;48.942;9.104;2023-04-01T04:23:25;11.60;98.10
8105;DHT22;4095;48.942;9.104;2023-04-01T04:25:57;11.60;98.10
8105;DHT22;4095;48.942;9.104;2023-04-01T04:28:26;11.60;98.10
8105;DHT22;4095;48.942;9.104;2023-04-01T04:30:52;11.60;98.10
8105;DHT22;4095;48.942;9.104;2023-04-01T04:33:18;11.60;98.00
8105;DHT22;4095;48.942;9.104;2023-04-01T04:35:43;11.60;98.20
8105;DHT22;4095;48.942;9.104;2023-04-01T04:38:09;11.60;98.00
8105;DHT22;4095;48.942;9.104;2023-04-01T04:40:40;11.60;97.90
8105;DHT22;4095;48.942;9.104;2023-04-01T04:43:06;11.60;97.90
8105;DHT22;4095;48.942;9.104;2023-04-01T04:45:32;11.60;98.00
8105;DHT22;4095;48.942;9.104;2023-04-01T04:47:58;11.60;98.00
8105;DHT22;4095;48.942;9.104;2023-04-01T04:50:24;11.60;98.10
8105;DHT22;4095;48.942;9.104;2023-04-01T04:52:50;11.60;97.80
8105;DHT22;4095;48.942;9.104;2023-04-01T04:55:16;11.50;97.90
8105;DHT22;4095;48.942;9.104;2023-04-01T04:57:42;11.50;97.80
8105;DHT22;4095;48.942;9.104;2023-04-01T05:00:08;11.50;97.80
8105;DHT22;4095;48.942;9.104;2023-04-01T05:02:34;11.50;97.80
8105;DHT22;4095;48.942;9.104;2023-04-01T05:04:59;11.50;97.60
8105;DHT22;4095;48.942;9.104;2023-04-01T05:07:25;11.50;97.70
8105;DHT22;4095;48.942;9.104;2023-04-01T05:09:51;11.50;97.50
8105;DHT22;4095;48.942;9.104;2023-04-01T05:12:16;11.50;97.50
8105;DHT22;4095;48.942;9.104;2023-04-01T05:14:42;11.50;97.50
8105;DHT22;4095;48.942;9.104;2023-04-01T05:17:13;11.50;97.60
8105;DHT22;4095;48.942;9.104;2023-04-01T05:19:39;11.50;97.50
8105;DHT22;4095;48.942;9.104;2023-04-01T05:22:05;11.50;97.40
8105;DHT22;4095;48.942;9.104;2023-04-01T05:24:32;11.50;97.70
8105;DHT22;4095;48.942;9.104;2023-04-01T05:26:58;11.60;97.60
8105;DHT22;4095;48.942;9.104;2023-04-01T05:29:25;11.60;97.60
8105;DHT22;4095;48.942;9.104;2023-04-01T05:31:51;11.60;97.40
8105;DHT22;4095;48.942;9.104;2023-04-01T05:34:17;11.60;97.40
8105;DHT22;4095;48.942;9.104;2023-04-01T05:36:43;11.70;97.40
8105;DHT22;4095;48.942;9.104;2023-04-01T05:39:09;11.70;97.50
8105;DHT22;4095;48.942;9.104;2023-04-01T05:41:35;11.70;97.30
8105;DHT22;4095;48.942;9.104;2023-04-01T05:44:01;11.80;97.40
8105;DHT22;4095;48.942;9.104;2023-04-01T05:46:27;11.80;97.20
8105;DHT22;4095;48.942;9.104;2023-04-01T05:48:53;11.80;97.20
8105;DHT22;4095;48.942;9.104;2023-04-01T05:51:18;11.80;97.40
8105;DHT22;4095;48.942;9.104;2023-04-01T05:53:44;11.80;97.50
8105;DHT22;4095;48.942;9.104;2023-04-01T05:56:10;11.80;97.30
8105;DHT22;4095;48.942;9.104;2023-04-01T05:58:36;11.90;97.30
8105;DHT22;4095;48.942;9.104;2023-04-01T06:01:04;11.90;97.30
8105;DHT22;4095;48.942;9.104;2023-04-01T06:03:30;11.90;97.50
8105;DHT22;4095;48.942;9.104;2023-04-01T06:05:55;11.90;97.10
8105;DHT22;4095;48.942;9.104;2023-04-01T06:08:21;12.00;97.10
8105;DHT22;4095;48.942;9.104;2023-04-01T06:14:20;12.00;97.10
8105;DHT22;4095;48.942;9.104;2023-04-01T06:19:47;12.10;96.90
8105;DHT22;4095;48.942;9.104;2023-04-01T06:33:23;12.30;96.80
8105;DHT22;4095;48.942;9.104;2023-04-01T06:36:33;12.30;97.00
8105;DHT22;4095;48.942;9.104;2023-04-01T06:38:44;12.20;96.90
8105;DHT22;4095;48.942;9.104;2023-04-01T06:50:28;12.30;97.10
8105;DHT22;4095;48.942;9.104;2023-04-01T06:52:58;12.30;97.10
8105;DHT22;4095;48.942;9.104;2023-04-01T06:55:46;12.30;97.10
8105;DHT22;4095;48.942;9.104;2023-04-01T06:58:27;12.30;97.30
8105;DHT22;4095;48.942;9.104;2023-04-01T07:00:58;12.20;97.50
8105;DHT22;4095;48.942;9.104;2023-04-01T07:03:41;12.30;97.60
8105;DHT22;4095;48.942;9.104;2023-04-01T07:06:23;12.30;97.60
8105;DHT22;4095;48.942;9.104;2023-04-01T07:08:51;12.30;97.40
8105;DHT22;4095;48.942;9.104;2023-04-01T07:11:32;12.40;97.90
8105;DHT22;4095;48.942;9.104;2023-04-01T07:14:02;12.40;97.70
8105;DHT22;4095;48.942;9.104;2023-04-01T07:16:41;12.40;97.70
8105;DHT22;4095;48.942;9.104;2023-04-01T07:19:21;12.40;97.80
8105;DHT22;4095;48.942;9.104;2023-04-01T07:21:51;12.50;97.60
8105;DHT22;4095;48.942;9.104;2023-04-01T07:24:29;12.50;97.40
8105;DHT22;4095;48.942;9.104;2023-04-01T07:26:57;12.40;97.20
8105;DHT22;4095;48.942;9.104;2023-04-01T07:29:23;12.40;97.30
8105;DHT22;4095;48.942;9.104;2023-04-01T07:35:07;12.40;97.60
8105;DHT22;4095;48.942;9.104;2023-04-01T07:49:06;12.50;97.50
8105;DHT22;4095;48.942;9.104;2023-04-01T07:54:57;12.60;97.50
8105;DHT22;4095;48.942;9.104;2023-04-01T07:58:05;12.60;97.40
8105;DHT22;4095;48.942;9.104;2023-04-01T08:00:56;12.50;97.60
8105;DHT22;4095;48.942;9.104;2023-04-01T08:09:27;12.60;97.60
8105;DHT22;4095;48.942;9.104;2023-04-01T08:15:05;12.60;97.60
8105;DHT22;4095;48.942;9.104;2023-04-01T08:23:15;12.60;98.10
8105;DHT22;4095;48.942;9.104;2023-04-01T08:28:34;12.50;98.70
8105;DHT22;4095;48.942;9.104;2023-04-01T08:31:12;12.40;98.50
8105;DHT22;4095;48.942;9.104;2023-04-01T08:33:40;12.40;98.50
8105;DHT22;4095;48.942;9.104;2023-04-01T08:36:37;12.40;99.10
8105;DHT22;4095;48.942;9.104;2023-04-01T08:39:10;12.40;99.20
8105;DHT22;4095;48.942;9.104;2023-04-01T08:47:46;12.20;99.90
8105;DHT22;4095;48.942;9.104;2023-04-01T08:51:04;12.20;99.90
8105;DHT22;4095;48.942;9.104;2023-04-01T08:56:25;12.10;99.90
8105;DHT22;4095;48.942;9.104;2023-04-01T09:02:04;12.00;99.90
8105;DHT22;4095;48.942;9.104;2023-04-01T09:15:35;12.20;99.90
8105;DHT22;4095;48.942;9.104;2023-04-01T09:21:09;12.30;99.90
8105;DHT22;4095;48.942;9.104;2023-04-01T09:27:00;12.40;99.90
8105;DHT22;4095;48.942;9.104;2023-04-01T09:29:56;12.50;99.90
8105;DHT22;4095;48.942;9.104;2023-04-01T09:32:42;12.50;99.90
8105;DHT22;4095;48.942;9.104;2023-04-01T09:35:48;12.50;99.90
8105;DHT22;4095;48.942;9.104;2023-04-01T09:38:22;12.60;99.90
8105;DHT22;4095;48.942;9.104;2023-04-01T09:40:55;12.70;99.90
8105;DHT22;4095;48.942;9.104;2023-04-01T09:51:31;12.70;99.10
8105;DHT22;4095;48.942;9.104;2023-04-01T09:54:58;12.70;98.60
8105;DHT22;4095;48.942;9.104;2023-04-01T10:33:38;12.60;98.10
8105;DHT22;4095;48.942;9.104;2023-04-01T10:55:46;13.00;97.20
8105;DHT22;4095;48.942;9.104;2023-04-01T11:14:48;13.20;96.80
8105;DHT22;4095;48.942;9.104;2023-04-01T11:23:31;13.10;96.40
8105;DHT22;4095;48.942;9.104;2023-04-01T11:26:06;13.20;96.90
8105;DHT22;4095;48.942;9.104;2023-04-01T11:37:57;13.50;96.30
8105;DHT22;4095;48.942;9.104;2023-04-01T11:43:39;13.60;96.00
8105;DHT22;4095;48.942;9.104;2023-04-01T11:49:36;13.60;96.00
8105;DHT22;4095;48.942;9.104;2023-04-01T11:52:01;13.50;95.80
8105;DHT22;4095;48.942;9.104;2023-04-01T12:11:48;13.60;95.70
8105;DHT22;4095;48.942;9.104;2023-04-01T12:56:32;13.60;95.40
8105;DHT22;4095;48.942;9.104;2023-04-01T12:59:17;13.60;95.40
8105;DHT22;4095;48.942;9.104;2023-04-01T13:02:07;13.50;95.70
8105;DHT22;4095;48.942;9.104;2023-04-01T13:05:09;13.50;96.10
8105;DHT22;4095;48.942;9.104;2023-04-01T13:10:32;13.30;96.30
8105;DHT22;4095;48.942;9.104;2023-04-01T13:13:23;13.30;97.30
8105;DHT22;4095;48.942;9.104;2023-04-01T13:16:08;13.30;98.00
8105;DHT22;4095;48.942;9.104;2023-04-01T13:30:24;12.70;99.00
8105;DHT22;4095;48.942;9.104;2023-04-01T13:35:23;12.80;99.40
8105;DHT22;4095;48.942;9.104;2023-04-01T13:43:34;12.90;99.20
8105;DHT22;4095;48.942;9.104;2023-04-01T13:53:54;12.70;99.30
8105;DHT22;4095;48.942;9.104;2023-04-01T13:56:45;12.70;99.60
8105;DHT22;4095;48.942;9.104;2023-04-01T14:12:33;12.70;99.90
8105;DHT22;4095;48.942;9.104;2023-04-01T14:20:56;12.80;99.30
8105;DHT22;4095;48.942;9.104;2023-04-01T14:29:15;12.90;98.80
8105;DHT22;4095;48.942;9.104;2023-04-01T14:35:17;13.00;98.80
8105;DHT22;4095;48.942;9.104;2023-04-01T14:40:44;12.80;98.20
8105;DHT22;4095;48.942;9.104;2023-04-01T14:43:47;12.80;98.20
8105;DHT22;4095;48.942;9.104;2023-04-01T14:49:24;12.80;98.50
8105;DHT22;4095;48.942;9.104;2023-04-01T14:51:56;12.80;98.50
8105;DHT22;4095;48.942;9.104;2023-04-01T14:54:35;12.90;98.30
8105;DHT22;4095;48.942;9.104;2023-04-01T14:57:14;13.00;98.40
8105;DHT22;4095;48.942;9.104;2023-04-01T14:59:46;13.10;98.50
8105;DHT22;4095;48.942;9.104;2023-04-01T15:05:29;13.10;98.10
8105;DHT22;4095;48.942;9.104;2023-04-01T15:13:38;13.10;97.90
8105;DHT22;4095;48.942;9.104;2023-04-01T15:29:30;13.20;97.50
8105;DHT22;4095;48.942;9.104;2023-04-01T15:35:25;13.30;97.30
8105;DHT22;4095;48.942;9.104;2023-04-01T15:37:34;13.30;97.80
8105;DHT22;4095;48.942;9.104;2023-04-01T15:43:01;13.30;97.60
8105;DHT22;4095;48.942;9.104;2023-04-01T15:45:35;13.20;97.40
8105;DHT22;4095;48.942;9.104;2023-04-01T15:48:33;13.20;97.30
8105;DHT22;4095;48.942;9.104;2023-04-01T15:56:32;13.20;97.40
8105;DHT22;4095;48.942;9.104;2023-04-01T16:07:23;13.10;97.30
8105;DHT22;4095;48.942;9.104;2023-04-01T16:13:02;13.00;97.30
8105;DHT22;4095;48.942;9.104;2023-04-01T16:15:59;13.00;97.40
8105;DHT22;4095;48.942;9.104;2023-04-01T16:26:57;13.00;96.80
8105;DHT22;4095;48.942;9.104;2023-04-01T16:29:49;13.10;96.90
8105;DHT22;4095;48.942;9.104;2023-04-01T16:32:37;13.10;96.60
8105;DHT22;4095;48.942;9.104;2023-04-01T16:35:16;13.20;96.50
8105;DHT22;4095;48.942;9.104;2023-04-01T16:37:54;13.10;96.50
8105;DHT22;4095;48.942;9.104;2023-04-01T16:40:37;13.10;96.50
8105;DHT22;4095;48.942;9.104;2023-04-01T16:45:53;13.00;96.60
8105;DHT22;4095;48.942;9.104;2023-04-01T16:51:16;13.00;96.50
8105;DHT22;4095;48.942;9.104;2023-04-01T16:53:45;13.00;96.50
8105;DHT22;4095;48.942;9.104;2023-04-01T16:56:23;13.00;96.70
8105;DHT22;4095;48.942;9.104;2023-04-01T16:59:15;13.00;96.70
8105;DHT22;4095;48.942;9.104;2023-04-01T17:02:08;13.00;96.50
8105;DHT22;4095;48.942;9.104;2023-04-01T17:04:57;13.10;96.60
8105;DHT22;4095;48.942;9.104;2023-04-01T17:10:16;13.00;96.80
8105;DHT22;4095;48.942;9.104;2023-04-01T17:18:29;13.00;97.20
8105;DHT22;4095;48.942;9.104;2023-04-01T17:21:05;13.00;97.40
8105;DHT22;4095;48.942;9.104;2023-04-01T17:29:52;13.00;97.60
8105;DHT22;4095;48.942;9.104;2023-04-01T17:34:58;13.00;97.60
8105;DHT22;4095;48.942;9.104;2023-04-01T17:37:41;13.00;97.40
8105;DHT22;4095;48.942;9.104;2023-04-01T17:45:53;12.80;97.10
8105;DHT22;4095;48.942;9.104;2023-04-01T17:48:46;12.80;97.20
8105;DHT22;4095;48.942;9.104;2023-04-01T17:51:54;12.70;97.30
8105;DHT22;4095;48.942;9.104;2023-04-01T18:00:37;12.60;97.70
8105;DHT22;4095;48.942;9.104;2023-04-01T18:02:57;12.60;97.50
8105;DHT22;4095;48.942;9.104;2023-04-01T18:17:23;12.50;97.90
8105;DHT22;4095;48.942;9.104;2023-04-01T18:23:03;12.50;97.80
8105;DHT22;4095;48.942;9.104;2023-04-01T18:25:36;12.50;98.00
8105;DHT22;4095;48.942;9.104;2023-04-01T18:28:31;12.50;98.10
8105;DHT22;4095;48.942;9.104;2023-04-01T18:38:54;12.30;97.80
8105;DHT22;4095;48.942;9.104;2023-04-01T18:41:32;12.30;97.70
8105;DHT22;4095;48.942;9.104;2023-04-01T18:52:36;12.20;97.70
8105;DHT22;4095;48.942;9.104;2023-04-01T18:58:05;12.10;98.00
8105;DHT22;4095;48.942;9.104;2023-04-01T19:00:38;12.10;98.10
8105;DHT22;4095;48.942;9.104;2023-04-01T19:03:23;12.00;98.00
8105;DHT22;4095;48.942;9.104;2023-04-01T19:05:52;12.10;98.30
8105;DHT22;4095;48.942;9.104;2023-04-01T19:08:32;12.00;98.20
8105;DHT22;4095;48.942;9.104;2023-04-01T19:22:34;11.90;98.50
8105;DHT22;4095;48.942;9.104;2023-04-01T19:27:45;11.80;98.80
8105;DHT22;4095;48.942;9.104;2023-04-01T19:39:04;11.80;99.00
8105;DHT22;4095;48.942;9.104;2023-04-01T19:47:39;11.70;99.10
8105;DHT22;4095;48.942;9.104;2023-04-01T19:50:31;11.70;98.90
8105;DHT22;4095;48.942;9.104;2023-04-01T19:53:29;11.70;99.00
8105;DHT22;4095;48.942;9.104;2023-04-01T20:01:43;11.80;99.00
8105;DHT22;4095;48.942;9.104;2023-04-01T20:04:23;11.70;98.90
8105;DHT22;4095;48.942;9.104;2023-04-01T20:18:02;11.80;99.40
8105;DHT22;4095;48.942;9.104;2023-04-01T20:20:30;11.80;99.30
8105;DHT22;4095;48.942;9.104;2023-04-01T20:23:30;11.80;99.40
8105;DHT22;4095;48.942;9.104;2023-04-01T20:26:13;11.80;99.60
8105;DHT22;4095;48.942;9.104;2023-04-01T20:31:41;11.80;99.30
8105;DHT22;4095;48.942;9.104;2023-04-01T20:37:21;11.80;99.60
8105;DHT22;4095;48.942;9.104;2023-04-01T20:40:26;11.90;99.50
8105;DHT22;4095;48.942;9.104;2023-04-01T20:43:28;11.90;99.30
8105;DHT22;4095;48.942;9.104;2023-04-01T20:46:19;11.90;99.60
8105;DHT22;4095;48.942;9.104;2023-04-01T20:51:37;11.90;99.40
8105;DHT22;4095;48.942;9.104;2023-04-01T20:54:22;11.90;99.50
8105;DHT22;4095;48.942;9.104;2023-04-01T20:57:15;12.00;99.60
8105;DHT22;4095;48.942;9.104;2023-04-01T21:00:03;12.00;99.60
8105;DHT22;4095;48.942;9.104;2023-04-01T21:11:12;11.90;99.30
8105;DHT22;4095;48.942;9.104;2023-04-01T21:16:23;12.00;99.40
8105;DHT22;4095;48.942;9.104;2023-04-01T21:25:19;12.10;99.50
8105;DHT22;4095;48.942;9.104;2023-04-01T21:28:06;12.00;99.60
8105;DHT22;4095;48.942;9.104;2023-04-01T21:39:19;11.70;99.80
8105;DHT22;4095;48.942;9.104;2023-04-01T22:07:21;11.90;99.10
8105;DHT22;4095;48.942;9.104;2023-04-01T22:10:27;12.00;99.20
8105;DHT22;4095;48.942;9.104;2023-04-01T22:18:32;12.00;99.20
8105;DHT22;4095;48.942;9.104;2023-04-01T22:21:43;12.00;99.10
8105;DHT22;4095;48.942;9.104;2023-04-01T22:24:26;12.00;99.10
8105;DHT22;4095;48.942;9.104;2023-04-01T22:29:44;12.00;99.10
8105;DHT22;4095;48.942;9.104;2023-04-01T22:32:20;12.00;99.20
8105;DHT22;4095;48.942;9.104;2023-04-01T22:37:47;12.00;98.90
8105;DHT22;4095;48.942;9.104;2023-04-01T22:40:37;12.10;99.30
8105;DHT22;4095;48.942;9.104;2023-04-01T22:43:09;12.10;99.40
8105;DHT22;4095;48.942;9.104;2023-04-01T22:46:05;12.10;99.20
8105;DHT22;4095;48.942;9.104;2023-04-01T22:49:03;12.10;99.40
8105;DHT22;4095;48.942;9.104;2023-04-01T22:51:41;12.10;99.40
8105;DHT22;4095;48.942;9.104;2023-04-01T22:54:15;12.20;99.60
8105;DHT22;4095;48.942;9.104;2023-04-01T22:56:57;12.20;99.70
8105;DHT22;4095;48.942;9.104;2023-04-01T23:04:55;12.10;99.90
8105;DHT22;4095;48.942;9.104;2023-04-01T23:07:35;12.20;99.90
8105;DHT22;4095;48.942;9.104;2023-04-01T23:12:59;12.20;99.90
8105;DHT22;4095;48.942;9.104;2023-04-01T23:15:27;12.20;99.90
8105;DHT22;4095;48.942;9.104;2023-04-01T23:20:54;12.20;99.90
8105;DHT22;4095;48.942;9.104;2023-04-01T23:26:25;12.30;99.90
8105;DHT22;4095;48.942;9.104;2023-04-01T23:28:56;12.30;99.90
8105;DHT22;4095;48.942;9.104;2023-04-01T23:31:37;12.30;99.90
8105;DHT22;4095;48.942;9.104;2023-04-01T23:36:44;12.20;99.90
8105;DHT22;4095;48.942;9.104;2023-04-01T23:39:28;12.30;99.90
8105;DHT22;4095;48.942;9.104;2023-04-01T23:41:58;12.30;99.90
8105;DHT22;4095;48.942;9.104;2023-04-01T23:44:26;12.20;99.90
8105;DHT22;4095;48.942;9.104;2023-04-01T23:46:53;12.30;99.90
8105;DHT22;4095;48.942;9.104;2023-04-01T23:52:29;12.30;99.90
8105;DHT22;4095;48.942;9.104;2023-04-01T23:55:13;12.30;99.90
8105;DHT22;4095;48.942;9.104;2023-04-01T23:57:40;12.30;99.80
